Time;durP1;ratioP1;P1;durP2;ratioP2;P2;SDS_P1;SDS_P2;PMS_P1;PMS_P2;Temp;Humidity;BMP_temperature;BMP_pressure;BME280_temperature;BME280_humidity;BME280_pressure;Samples;Min_cycle;Max_cycle;Signal;HPM_P1;HPM_P2
2023/12/27 00:00:29;;;;;;;3.25;1.80;;;;;;;;;;5073511;28;20021;-86
2023/12/27 00:02:55;;;;;;;2.33;1.83;;;;;;;;;;5086151;28;20078;-87
2023/12/27 00:05:20;;;;;;;1.60;1.50;;;;;;;;;;5074355;28;20411;-87
2023/12/27 00:07:46;;;;;;;4.93;1.52;;;;;;;;;;5056430;28;20028;-85
2023/12/27 00:10:11;;;;;;;3.95;1.73;;;;;;;;;;5056012;28;20025;-88
2023/12/27 00:12:36;;;;;;;1.20;1.10;;;;;;;;;;5074198;28;20060;-87
2023/12/27 00:15:02;;;;;;;1.35;1.25;;;;;;;;;;5056478;28;20035;-88
2023/12/27 00:17:27;;;;;;;1.50;1.40;;;;;;;;;;5073952;28;20028;-88
2023/12/27 00:19:52;;;;;;;3.20;1.50;;;;;;;;;;5076348;28;20531;-87
2023/12/27 00:22:18;;;;;;;6.30;1.60;;;;;;;;;;5081644;28;20509;-86
2023/12/27 00:24:43;;;;;;;1.88;1.63;;;;;;;;;;5072880;28;20073;-87
2023/12/27 00:27:08;;;;;;;5.10;1.52;;;;;;;;;;5062643;28;20386;-86
2023/12/27 00:29:34;;;;;;;2.40;1.65;;;;;;;;;;5086574;28;20390;-87
2023/12/27 00:31:59;;;;;;;1.55;1.45;;;;;;;;;;5073297;28;20032;-87
2023/12/27 00:34:24;;;;;;;1.90;1.48;;;;;;;;;;5073875;28;20478;-87
2023/12/27 00:36:50;;;;;;;1.60;1.50;;;;;;;;;;5054345;28;20043;-86
2023/12/27 00:39:16;;;;;;;1.63;1.50;;;;;;;;;;5073256;28;20021;-86
2023/12/27 00:41:42;;;;;;;2.15;1.67;;;;;;;;;;5054751;28;20024;-87
2023/12/27 00:44:07;;;;;;;2.03;1.48;;;;;;;;;;5072838;28;20065;-85
2023/12/27 00:46:32;;;;;;;1.98;1.30;;;;;;;;;;5072824;28;20028;-84
2023/12/27 00:48:58;;;;;;;1.38;1.27;;;;;;;;;;5054849;28;20032;-87
2023/12/27 00:51:23;;;;;;;1.50;1.33;;;;;;;;;;5073332;28;20025;-85
2023/12/27 00:53:49;;;;;;;1.63;1.52;;;;;;;;;;5055638;28;20046;-86
2023/12/27 00:56:15;;;;;;;3.35;1.48;;;;;;;;;;5075260;28;20432;-86
2023/12/27 00:58:40;;;;;;;2.78;1.67;;;;;;;;;;5074264;28;20016;-85
2023/12/27 01:01:06;;;;;;;1.98;1.73;;;;;;;;;;5076887;28;20439;-87
2023/12/27 01:03:31;;;;;;;1.88;1.58;;;;;;;;;;5079093;28;20039;-85
2023/12/27 01:05:56;;;;;;;4.68;1.83;;;;;;;;;;5073163;28;20509;-86
2023/12/27 01:08:22;;;;;;;3.35;1.63;;;;;;;;;;5075481;28;20107;-86
2023/12/27 01:10:47;;;;;;;1.40;1.02;;;;;;;;;;5042629;28;1074855;-86
2023/12/27 01:13:12;;;;;;;1.63;1.42;;;;;;;;;;5072717;28;20036;-86
2023/12/27 01:15:37;;;;;;;2.20;1.33;;;;;;;;;;5064266;28;20042;-86
2023/12/27 01:18:03;;;;;;;1.63;1.30;;;;;;;;;;5084441;28;20016;-84
2023/12/27 01:20:28;;;;;;;1.48;1.20;;;;;;;;;;5076552;28;20017;-86
2023/12/27 01:22:54;;;;;;;1.52;1.33;;;;;;;;;;5061903;28;20032;-85
2023/12/27 01:25:19;;;;;;;2.35;1.40;;;;;;;;;;5064104;28;20039;-86
2023/12/27 01:27:46;;;;;;;1.35;1.25;;;;;;;;;;5085904;28;20355;-86
2023/12/27 01:30:12;;;;;;;3.92;1.95;;;;;;;;;;5085622;28;20020;-86
2023/12/27 01:32:37;;;;;;;2.13;1.65;;;;;;;;;;5088046;28;20031;-88
2023/12/27 01:35:03;;;;;;;2.45;1.52;;;;;;;;;;5087620;28;20027;-86
2023/12/27 01:37:28;;;;;;;2.88;1.63;;;;;;;;;;5065919;28;20024;-88
2023/12/27 01:39:54;;;;;;;1.40;1.30;;;;;;;;;;5077917;28;20206;-85
2023/12/27 01:42:19;;;;;;;2.75;1.60;;;;;;;;;;5082010;28;20028;-85
2023/12/27 01:44:44;;;;;;;1.85;1.52;;;;;;;;;;5084695;28;20043;-87
2023/12/27 01:47:11;;;;;;;1.58;1.48;;;;;;;;;;5083468;28;20016;-86
2023/12/27 01:49:36;;;;;;;1.85;1.52;;;;;;;;;;5082868;28;20024;-86
2023/12/27 01:52:02;;;;;;;3.72;2.05;;;;;;;;;;5085952;28;20020;-85
2023/12/27 01:54:28;;;;;;;1.50;1.40;;;;;;;;;;5086049;28;20016;-87
2023/12/27 01:56:53;;;;;;;1.67;1.40;;;;;;;;;;5081918;28;20092;-85
2023/12/27 01:59:19;;;;;;;2.05;1.50;;;;;;;;;;5073998;28;20077;-85
2023/12/27 02:01:45;;;;;;;1.55;1.30;;;;;;;;;;5066136;28;20028;-87
2023/12/27 02:04:10;;;;;;;1.75;1.60;;;;;;;;;;5074624;28;20107;-85
2023/12/27 02:06:36;;;;;;;4.93;2.00;;;;;;;;;;5062343;28;20024;-85
2023/12/27 02:09:01;;;;;;;5.00;1.60;;;;;;;;;;5082629;28;20083;-86
2023/12/27 02:11:27;;;;;;;2.88;1.70;;;;;;;;;;5064022;28;20024;-87
2023/12/27 02:13:52;;;;;;;2.20;1.70;;;;;;;;;;5077489;28;20078;-85
2023/12/27 02:16:20;;;;;;;1.98;1.65;;;;;;;;;;5074176;28;20089;-86
2023/12/27 02:18:46;;;;;;;3.20;1.55;;;;;;;;;;5087700;28;20112;-85
2023/12/27 02:21:12;;;;;;;4.55;2.15;;;;;;;;;;5085680;28;20460;-87
2023/12/27 02:23:39;;;;;;;4.28;1.70;;;;;;;;;;5098181;28;20039;-88
2023/12/27 02:26:04;;;;;;;1.30;1.17;;;;;;;;;;5089211;28;20027;-88
2023/12/27 02:28:30;;;;;;;1.23;1.13;;;;;;;;;;5066462;28;20017;-87
2023/12/27 02:30:55;;;;;;;1.70;1.60;;;;;;;;;;5064810;28;20279;-85
2023/12/27 02:33:21;;;;;;;2.42;1.30;;;;;;;;;;5087424;28;20504;-86
2023/12/27 02:35:46;;;;;;;2.90;1.40;;;;;;;;;;5083454;28;20101;-86
2023/12/27 02:38:11;;;;;;;1.40;1.20;;;;;;;;;;5090864;28;20466;-86
2023/12/27 02:40:37;;;;;;;1.15;1.10;;;;;;;;;;5084085;28;20024;-85
2023/12/27 02:43:02;;;;;;;2.00;1.60;;;;;;;;;;5092293;28;20107;-86
2023/12/27 02:45:28;;;;;;;1.35;1.02;;;;;;;;;;5086326;28;20099;-86
2023/12/27 02:47:53;;;;;;;5.55;1.58;;;;;;;;;;5081851;28;20375;-85
2023/12/27 02:50:18;;;;;;;4.60;1.52;;;;;;;;;;5071763;28;20025;-85
2023/12/27 02:52:43;;;;;;;1.35;1.25;;;;;;;;;;5085680;28;20070;-87
2023/12/27 02:55:09;;;;;;;1.50;1.38;;;;;;;;;;5095872;28;20163;-89
2023/12/27 02:57:34;;;;;;;1.95;1.50;;;;;;;;;;5073477;28;20086;-85
2023/12/27 03:00:00;;;;;;;1.80;1.48;;;;;;;;;;5095802;28;20007;-89
2023/12/27 03:02:25;;;;;;;2.20;1.38;;;;;;;;;;5081836;28;20070;-85
2023/12/27 03:04:50;;;;;;;1.60;1.50;;;;;;;;;;5088243;28;20109;-86
2023/12/27 03:07:16;;;;;;;3.40;2.33;;;;;;;;;;5080496;28;20047;-84
2023/12/27 03:09:42;;;;;;;3.38;2.22;;;;;;;;;;5081058;28;20406;-86
2023/12/27 03:12:07;;;;;;;2.70;1.70;;;;;;;;;;5063941;28;20065;-87
2023/12/27 03:14:32;;;;;;;2.08;1.90;;;;;;;;;;5088707;28;20028;-87
2023/12/27 03:16:59;;;;;;;3.65;1.90;;;;;;;;;;5080343;28;20391;-88
2023/12/27 03:19:25;;;;;;;2.22;2.05;;;;;;;;;;5082078;28;20090;-87
2023/12/27 03:21:50;;;;;;;2.58;1.73;;;;;;;;;;5079825;28;20413;-85
2023/12/27 03:24:16;;;;;;;3.30;2.33;;;;;;;;;;5080804;28;20436;-87
2023/12/27 03:26:41;;;;;;;4.30;2.50;;;;;;;;;;5079051;28;20024;-86
2023/12/27 03:29:06;;;;;;;2.90;2.28;;;;;;;;;;5084058;28;20488;-86
2023/12/27 03:31:32;;;;;;;3.90;2.33;;;;;;;;;;5076560;28;20028;-85
2023/12/27 03:33:58;;;;;;;5.13;2.30;;;;;;;;;;5063026;28;20016;-87
2023/12/27 03:36:26;;;;;;;4.65;2.35;;;;;;;;;;5080464;28;20040;-86
2023/12/27 03:38:51;;;;;;;3.30;2.20;;;;;;;;;;5080289;28;20031;-86
2023/12/27 03:41:17;;;;;;;4.30;2.80;;;;;;;;;;5082131;28;20135;-85
2023/12/27 03:43:42;;;;;;;4.18;2.00;;;;;;;;;;5086493;28;20043;-87
2023/12/27 03:46:09;;;;;;;5.75;2.10;;;;;;;;;;5063199;28;20028;-87
2023/12/27 03:48:34;;;;;;;3.30;2.00;;;;;;;;;;5060465;28;20063;-85
2023/12/27 03:50:59;;;;;;;4.80;2.00;;;;;;;;;;5085236;28;20016;-88
2023/12/27 03:53:25;;;;;;;4.65;2.10;;;;;;;;;;5085834;28;20040;-88
2023/12/27 03:55:50;;;;;;;4.00;2.10;;;;;;;;;;5080094;28;20402;-88
2023/12/27 03:58:15;;;;;;;2.90;2.15;;;;;;;;;;5085868;28;20028;-88
2023/12/27 04:00:41;;;;;;;3.55;1.70;;;;;;;;;;5081262;28;20012;-88
2023/12/27 04:03:06;;;;;;;4.65;1.95;;;;;;;;;;5090826;28;20103;-87
2023/12/27 04:05:31;;;;;;;2.63;2.17;;;;;;;;;;5084191;28;20389;-86
2023/12/27 04:07:57;;;;;;;3.50;2.45;;;;;;;;;;5074346;28;20389;-90
2023/12/27 04:10:22;;;;;;;4.38;2.55;;;;;;;;;;5088956;28;20490;-87
2023/12/27 04:12:47;;;;;;;2.55;2.30;;;;;;;;;;5058011;28;20065;-87
2023/12/27 04:15:12;;;;;;;3.83;2.10;;;;;;;;;;5100303;28;20008;-89
2023/12/27 04:17:39;;;;;;;2.47;2.25;;;;;;;;;;5097180;28;20055;-85
2023/12/27 04:20:04;;;;;;;3.42;2.10;;;;;;;;;;5071800;28;20038;-87
2023/12/27 04:22:30;;;;;;;2.50;2.17;;;;;;;;;;5081914;28;20142;-89
2023/12/27 04:24:55;;;;;;;10.88;2.22;;;;;;;;;;5066953;28;20028;-88
2023/12/27 04:27:20;;;;;;;2.70;2.13;;;;;;;;;;5076700;28;20016;-87
2023/12/27 04:29:45;;;;;;;2.75;2.25;;;;;;;;;;5083867;28;20090;-88
2023/12/27 04:32:11;;;;;;;3.05;1.88;;;;;;;;;;5062810;28;20073;-85
2023/12/27 04:34:36;;;;;;;5.15;2.55;;;;;;;;;;5080448;28;20032;-86
2023/12/27 04:37:01;;;;;;;3.72;2.17;;;;;;;;;;5083093;28;20028;-86
2023/12/27 04:39:27;;;;;;;4.93;2.03;;;;;;;;;;5085548;28;20028;-88
2023/12/27 04:41:52;;;;;;;2.05;1.88;;;;;;;;;;5080785;28;20386;-86
2023/12/27 04:44:17;;;;;;;4.47;2.03;;;;;;;;;;5080546;28;20031;-85
2023/12/27 04:46:43;;;;;;;4.47;2.20;;;;;;;;;;5061439;28;20024;-86
2023/12/27 04:49:09;;;;;;;3.05;2.10;;;;;;;;;;5080053;28;20062;-86
2023/12/27 04:51:35;;;;;;;4.28;2.17;;;;;;;;;;5056306;28;20058;-87
2023/12/27 04:54:01;;;;;;;2.10;1.77;;;;;;;;;;5082940;28;20047;-85
2023/12/27 04:56:27;;;;;;;2.13;1.60;;;;;;;;;;5081187;28;20032;-89
2023/12/27 04:58:54;;;;;;;2.63;2.33;;;;;;;;;;5080709;28;20094;-87
2023/12/27 05:01:19;;;;;;;2.38;1.77;;;;;;;;;;5077164;28;20028;-87
2023/12/27 05:03:44;;;;;;;1.70;1.52;;;;;;;;;;5066712;28;20415;-88
2023/12/27 05:06:11;;;;;;;2.28;1.85;;;;;;;;;;5076448;28;20580;-86
2023/12/27 05:08:45;;;;;;;1.95;1.52;;;;;;;;;;5074724;28;20024;-88
2023/12/27 05:11:15;;;;;;;5.80;1.67;;;;;;;;;;5082772;28;20444;-88
2023/12/27 05:13:41;;;;;;;2.08;1.67;;;;;;;;;;5059128;28;20078;-86
2023/12/27 05:16:14;;;;;;;2.58;2.05;;;;;;;;;;5078845;28;20017;-86
2023/12/27 05:18:41;;;;;;;1.65;1.50;;;;;;;;;;5061601;28;20028;-87
2023/12/27 05:21:08;;;;;;;2.40;2.17;;;;;;;;;;5071644;28;20044;-88
2023/12/27 05:23:34;;;;;;;2.13;1.73;;;;;;;;;;5059137;28;20052;-86
2023/12/27 05:25:59;;;;;;;2.10;1.67;;;;;;;;;;5058313;28;20024;-87
2023/12/27 05:28:25;;;;;;;2.50;1.58;;;;;;;;;;5083804;28;20039;-86
2023/12/27 05:30:50;;;;;;;6.57;1.88;;;;;;;;;;5061460;28;20506;-85
2023/12/27 05:33:15;;;;;;;2.38;1.67;;;;;;;;;;5058502;28;20079;-85
2023/12/27 05:35:41;;;;;;;3.20;1.77;;;;;;;;;;5079585;28;20039;-86
2023/12/27 05:38:06;;;;;;;6.50;1.85;;;;;;;;;;5079996;28;20035;-85
2023/12/27 05:40:32;;;;;;;2.45;1.77;;;;;;;;;;5072644;28;20363;-88
2023/12/27 05:42:57;;;;;;;2.15;1.98;;;;;;;;;;5083747;28;20021;-88
2023/12/27 05:45:22;;;;;;;5.30;1.88;;;;;;;;;;5078911;28;20125;-86
2023/12/27 05:47:48;;;;;;;2.83;2.17;;;;;;;;;;5077554;28;20028;-88
2023/12/27 05:50:14;;;;;;;2.58;2.03;;;;;;;;;;5076693;28;20026;-86
2023/12/27 05:52:40;;;;;;;4.43;1.83;;;;;;;;;;5080357;28;20043;-87
2023/12/27 05:55:06;;;;;;;3.90;2.05;;;;;;;;;;5078267;28;20028;-87
2023/12/27 05:57:31;;;;;;;1.42;1.33;;;;;;;;;;5076813;28;20051;-86
2023/12/27 05:59:56;;;;;;;2.35;1.75;;;;;;;;;;5068132;28;20017;-88
2023/12/27 06:02:22;;;;;;;2.28;1.70;;;;;;;;;;5064340;28;20402;-87
2023/12/27 06:04:47;;;;;;;3.65;1.92;;;;;;;;;;5090199;28;20020;-87
2023/12/27 06:07:12;;;;;;;4.85;1.63;;;;;;;;;;5089278;28;20036;-86
2023/12/27 06:09:39;;;;;;;1.90;1.63;;;;;;;;;;5088087;28;20028;-86
2023/12/27 06:12:07;;;;;;;1.77;1.38;;;;;;;;;;5075554;28;20056;-86
2023/12/27 06:14:32;;;;;;;1.60;1.50;;;;;;;;;;5089751;28;20370;-88
2023/12/27 06:16:58;;;;;;;7.45;1.92;;;;;;;;;;5067926;28;20021;-88
2023/12/27 06:19:23;;;;;;;4.05;1.70;;;;;;;;;;5083851;28;20106;-86
2023/12/27 06:21:48;;;;;;;2.03;1.88;;;;;;;;;;5083638;28;20109;-87
2023/12/27 06:24:14;;;;;;;2.00;1.80;;;;;;;;;;5085712;28;20035;-87
2023/12/27 06:26:40;;;;;;;4.20;2.10;;;;;;;;;;5064190;28;20024;-86
2023/12/27 06:29:05;;;;;;;4.97;2.10;;;;;;;;;;5094931;28;20021;-86
2023/12/27 06:31:34;;;;;;;3.45;2.00;;;;;;;;;;5074551;28;20024;-86
2023/12/27 06:33:59;;;;;;;3.60;2.58;;;;;;;;;;5090185;28;20035;-89
2023/12/27 06:36:25;;;;;;;4.72;2.40;;;;;;;;;;5088044;28;20110;-86
2023/12/27 06:38:50;;;;;;;1.80;1.70;;;;;;;;;;5079498;28;20025;-87
2023/12/27 06:41:16;;;;;;;2.33;2.13;;;;;;;;;;5079686;28;20112;-88
2023/12/27 06:43:43;;;;;;;2.72;2.03;;;;;;;;;;5067758;28;20398;-86
2023/12/27 06:46:08;;;;;;;2.15;1.95;;;;;;;;;;5081704;28;20499;-85
2023/12/27 06:48:33;;;;;;;3.22;1.98;;;;;;;;;;5091118;28;20016;-88
2023/12/27 06:50:59;;;;;;;3.33;2.00;;;;;;;;;;5087144;28;20106;-87
2023/12/27 06:53:24;;;;;;;2.47;1.80;;;;;;;;;;5096394;28;20043;-87
2023/12/27 06:55:49;;;;;;;3.88;1.98;;;;;;;;;;5098413;28;20058;-87
2023/12/27 06:58:15;;;;;;;3.72;1.85;;;;;;;;;;5078970;28;20024;-86
2023/12/27 07:00:41;;;;;;;1.90;1.80;;;;;;;;;;5073108;28;20019;-85
2023/12/27 07:03:06;;;;;;;4.35;1.90;;;;;;;;;;5093673;28;20009;-84
2023/12/27 07:05:32;;;;;;;2.50;1.90;;;;;;;;;;5078410;28;20046;-87
2023/12/27 07:07:57;;;;;;;2.97;2.03;;;;;;;;;;5075549;28;20046;-90
2023/12/27 07:10:22;;;;;;;4.38;2.05;;;;;;;;;;5099262;28;20107;-84
2023/12/27 07:12:48;;;;;;;3.72;2.20;;;;;;;;;;5091055;28;20024;-88
2023/12/27 07:15:13;;;;;;;2.30;2.08;;;;;;;;;;5067211;28;20028;-86
2023/12/27 07:17:39;;;;;;;2.05;1.80;;;;;;;;;;5069707;28;20035;-87
2023/12/27 07:20:05;;;;;;;3.38;1.92;;;;;;;;;;5062834;28;20020;-88
2023/12/27 07:22:30;;;;;;;1.70;1.60;;;;;;;;;;5069056;28;20024;-87
2023/12/27 07:24:55;;;;;;;3.33;1.88;;;;;;;;;;5081551;28;20066;-86
2023/12/27 07:27:21;;;;;;;2.97;1.92;;;;;;;;;;5073583;28;20099;-88
2023/12/27 07:29:46;;;;;;;3.47;2.05;;;;;;;;;;5073453;28;20444;-86
2023/12/27 07:32:11;;;;;;;4.55;1.88;;;;;;;;;;5098350;28;20381;-86
2023/12/27 07:34:37;;;;;;;2.45;1.98;;;;;;;;;;5090175;28;20119;-86
2023/12/27 07:37:03;;;;;;;1.67;1.58;;;;;;;;;;5083172;28;20031;-86
2023/12/27 07:39:29;;;;;;;2.38;1.88;;;;;;;;;;5073236;28;20063;-88
2023/12/27 07:41:54;;;;;;;4.40;2.30;;;;;;;;;;5087850;28;20064;-88
2023/12/27 07:44:20;;;;;;;2.58;2.08;;;;;;;;;;5082822;28;20028;-86
2023/12/27 07:46:46;;;;;;;2.05;1.77;;;;;;;;;;5087239;28;20055;-86
2023/12/27 07:49:11;;;;;;;3.38;2.47;;;;;;;;;;5080364;28;20222;-86
2023/12/27 07:51:37;;;;;;;3.88;2.40;;;;;;;;;;5067063;28;20016;-86
2023/12/27 07:54:02;;;;;;;2.95;2.38;;;;;;;;;;5086125;28;20043;-87
2023/12/27 07:56:28;;;;;;;3.33;2.30;;;;;;;;;;5087337;28;20082;-87
2023/12/27 07:58:54;;;;;;;3.78;2.08;;;;;;;;;;5078152;28;20024;-86
2023/12/27 08:01:20;;;;;;;3.78;2.50;;;;;;;;;;5086526;28;20126;-86
2023/12/27 08:03:45;;;;;;;4.28;2.42;;;;;;;;;;5083171;28;20198;-86
2023/12/27 08:06:12;;;;;;;3.85;2.55;;;;;;;;;;5089708;28;20034;-85
2023/12/27 08:08:37;;;;;;;3.83;2.10;;;;;;;;;;5066220;28;20031;-86
2023/12/27 08:11:05;;;;;;;5.68;2.90;;;;;;;;;;5083940;28;20390;-86
2023/12/27 08:13:36;;;;;;;4.60;2.45;;;;;;;;;;5061694;28;20389;-89
2023/12/27 08:16:01;;;;;;;5.60;2.92;;;;;;;;;;5083008;28;20020;-88
2023/12/27 08:18:27;;;;;;;3.78;2.42;;;;;;;;;;5067471;28;20031;-87
2023/12/27 08:20:52;;;;;;;7.68;2.67;;;;;;;;;;5092804;28;20042;-87
2023/12/27 08:23:17;;;;;;;6.07;2.28;;;;;;;;;;5087121;28;20103;-88
2023/12/27 08:25:44;;;;;;;5.28;2.47;;;;;;;;;;5064877;28;20016;-86
2023/12/27 08:28:10;;;;;;;4.10;2.47;;;;;;;;;;5080779;28;20039;-88
2023/12/27 08:30:36;;;;;;;3.47;2.55;;;;;;;;;;5087782;28;20031;-87
2023/12/27 08:33:06;;;;;;;3.90;2.95;;;;;;;;;;5093330;28;20080;-88
2023/12/27 08:35:32;;;;;;;5.60;3.03;;;;;;;;;;5088809;28;20039;-87
2023/12/27 08:37:57;;;;;;;5.43;2.83;;;;;;;;;;5067167;28;20032;-87
2023/12/27 08:40:23;;;;;;;3.15;2.50;;;;;;;;;;5081899;28;20020;-86
2023/12/27 08:42:48;;;;;;;3.20;2.08;;;;;;;;;;5081151;28;20165;-87
2023/12/27 08:45:14;;;;;;;2.97;2.40;;;;;;;;;;5077031;28;20046;-87
2023/12/27 08:47:39;;;;;;;7.90;3.47;;;;;;;;;;5078535;28;20095;-87
2023/12/27 08:50:10;;;;;;;6.22;2.58;;;;;;;;;;5067073;28;20155;-86
2023/12/27 08:52:36;;;;;;;5.75;3.65;;;;;;;;;;5086621;28;20286;-87
2023/12/27 08:55:03;;;;;;;6.43;2.92;;;;;;;;;;5088677;28;20024;-86
2023/12/27 08:57:28;;;;;;;3.85;2.53;;;;;;;;;;5085140;28;20047;-86
2023/12/27 08:59:54;;;;;;;3.72;2.78;;;;;;;;;;5081161;28;20103;-87
2023/12/27 09:02:19;;;;;;;7.40;3.60;;;;;;;;;;5067362;28;20060;-88
2023/12/27 09:04:44;;;;;;;7.00;3.03;;;;;;;;;;5089989;28;20023;-87
2023/12/27 09:07:10;;;;;;;3.33;2.40;;;;;;;;;;5068305;28;20025;-87
2023/12/27 09:09:35;;;;;;;2.55;2.20;;;;;;;;;;5088409;28;20055;-87
2023/12/27 09:12:01;;;;;;;3.28;2.35;;;;;;;;;;5060768;28;20020;-86
2023/12/27 09:14:27;;;;;;;3.67;2.53;;;;;;;;;;5067340;28;20025;-87
2023/12/27 09:16:52;;;;;;;3.55;2.28;;;;;;;;;;5090101;28;20027;-86
2023/12/27 09:19:17;;;;;;;2.58;2.03;;;;;;;;;;5086915;28;20031;-87
2023/12/27 09:21:46;;;;;;;2.05;1.80;;;;;;;;;;5066943;28;20078;-87
2023/12/27 09:24:12;;;;;;;2.20;2.00;;;;;;;;;;5093329;28;20404;-85
2023/12/27 09:26:37;;;;;;;4.45;2.25;;;;;;;;;;5079740;28;20035;-88
2023/12/27 09:29:04;;;;;;;3.90;2.17;;;;;;;;;;5091003;28;20037;-88
2023/12/27 09:31:30;;;;;;;4.22;2.30;;;;;;;;;;5081823;28;20024;-87
2023/12/27 09:33:59;;;;;;;4.03;2.55;;;;;;;;;;5076492;28;20047;-87
2023/12/27 09:36:25;;;;;;;5.45;2.15;;;;;;;;;;5079983;28;20036;-87
2023/12/27 09:38:51;;;;;;;3.10;2.42;;;;;;;;;;5069500;28;20116;-88
2023/12/27 09:41:16;;;;;;;3.17;2.00;;;;;;;;;;5069624;28;20051;-87
2023/12/27 09:43:43;;;;;;;3.20;1.63;;;;;;;;;;5078711;28;20431;-87
2023/12/27 09:46:10;;;;;;;2.33;1.85;;;;;;;;;;5085838;28;20020;-87
2023/12/27 09:48:40;;;;;;;2.55;1.80;;;;;;;;;;5087957;28;20024;-87
2023/12/27 09:51:06;;;;;;;1.98;1.60;;;;;;;;;;5089024;28;20023;-88
2023/12/27 09:53:32;;;;;;;2.83;1.48;;;;;;;;;;5083114;28;20153;-87
2023/12/27 09:55:59;;;;;;;3.53;2.13;;;;;;;;;;5083395;28;20054;-87
2023/12/27 09:58:28;;;;;;;2.40;1.20;;;;;;;;;;5071201;28;20044;-87
2023/12/27 10:01:00;;;;;;;6.45;1.58;;;;;;;;;;5089509;28;20374;-87
2023/12/27 10:03:48;;;;;;;2.92;1.77;;;;;;;;;;5086630;28;20072;-87
2023/12/27 10:06:28;;;;;;;1.67;1.52;;;;;;;;;;5068468;28;20065;-87
2023/12/27 10:08:54;;;;;;;2.10;1.15;;;;;;;;;;5086076;28;20028;-88
2023/12/27 10:11:21;;;;;;;5.38;1.58;;;;;;;;;;5087132;28;20037;-86
2023/12/27 10:13:47;;;;;;;3.60;1.25;;;;;;;;;;5079055;28;20494;-86
2023/12/27 10:16:13;;;;;;;1.98;1.73;;;;;;;;;;5083864;28;20058;-87
2023/12/27 10:18:38;;;;;;;2.22;1.50;;;;;;;;;;5086185;28;20024;-87
2023/12/27 10:21:04;;;;;;;2.50;1.75;;;;;;;;;;5088147;28;20016;-87
2023/12/27 10:23:33;;;;;;;2.63;1.70;;;;;;;;;;5071602;28;20016;-85
2023/12/27 10:25:58;;;;;;;1.40;1.30;;;;;;;;;;5087522;28;20050;-85
2023/12/27 10:28:24;;;;;;;1.65;1.25;;;;;;;;;;5086674;28;20025;-86
2023/12/27 10:30:53;;;;;;;1.95;1.30;;;;;;;;;;5075377;28;20115;-87
2023/12/27 10:33:20;;;;;;;3.13;1.75;;;;;;;;;;5077674;28;20131;-85
2023/12/27 10:35:46;;;;;;;3.28;1.52;;;;;;;;;;5084926;28;20737;-84
2023/12/27 10:38:12;;;;;;;1.88;1.20;;;;;;;;;;5096467;28;20070;-86
2023/12/27 10:40:40;;;;;;;3.03;1.50;;;;;;;;;;5085355;28;20084;-87
2023/12/27 10:43:06;;;;;;;2.55;1.40;;;;;;;;;;5081502;28;20524;-87
2023/12/27 10:45:32;;;;;;;5.63;1.67;;;;;;;;;;5090879;28;20478;-87
2023/12/27 10:47:59;;;;;;;5.72;1.45;;;;;;;;;;5080049;28;20020;-86
2023/12/27 10:50:29;;;;;;;1.35;1.25;;;;;;;;;;5089518;28;20149;-86
2023/12/27 10:53:08;;;;;;;3.67;1.73;;;;;;;;;;5098141;28;20072;-86
2023/12/27 10:55:35;;;;;;;2.30;1.50;;;;;;;;;;5093762;28;20125;-87
2023/12/27 10:58:03;;;;;;;2.80;1.70;;;;;;;;;;5091437;28;20034;-87
2023/12/27 11:00:28;;;;;;;4.50;1.35;;;;;;;;;;5084381;28;20395;-86
2023/12/27 11:02:55;;;;;;;2.10;1.48;;;;;;;;;;5086961;28;20016;-86
2023/12/27 11:05:22;;;;;;;1.95;1.48;;;;;;;;;;5091491;28;20024;-87
2023/12/27 11:07:49;;;;;;;4.22;1.70;;;;;;;;;;5064275;28;20085;-86
2023/12/27 11:10:15;;;;;;;3.63;1.45;;;;;;;;;;5082997;28;20024;-87
2023/12/27 11:12:46;;;;;;;2.33;1.48;;;;;;;;;;5090624;28;20056;-86
2023/12/27 11:15:14;;;;;;;6.00;1.65;;;;;;;;;;5086036;28;20027;-85
2023/12/27 11:17:40;;;;;;;1.48;1.27;;;;;;;;;;5080765;28;20024;-86
2023/12/27 11:20:10;;;;;;;3.95;1.50;;;;;;;;;;5087350;28;20016;-86
2023/12/27 11:22:36;;;;;;;6.25;1.50;;;;;;;;;;5090358;28;20060;-86
2023/12/27 11:25:03;;;;;;;3.03;1.55;;;;;;;;;;5093089;28;20017;-86
2023/12/27 11:27:29;;;;;;;2.10;1.20;;;;;;;;;;5082709;28;20037;-86
2023/12/27 11:29:55;;;;;;;5.32;1.75;;;;;;;;;;5077993;28;20017;-87
2023/12/27 11:32:20;;;;;;;1.95;1.30;;;;;;;;;;5063570;28;20036;-87
2023/12/27 11:34:46;;;;;;;1.17;1.02;;;;;;;;;;5087357;28;20024;-86
2023/12/27 11:37:16;;;;;;;3.42;1.42;;;;;;;;;;5084597;28;20020;-86
2023/12/27 11:39:46;;;;;;;1.35;1.25;;;;;;;;;;5063225;28;20044;-87
2023/12/27 11:42:15;;;;;;;4.13;1.35;;;;;;;;;;5094332;28;20111;-86
2023/12/27 11:44:47;;;;;;;1.45;1.35;;;;;;;;;;5089725;28;20393;-87
2023/12/27 11:47:15;;;;;;;2.03;1.40;;;;;;;;;;5083401;28;20044;-87
2023/12/27 11:49:40;;;;;;;1.90;1.70;;;;;;;;;;5083427;28;20024;-87
2023/12/27 11:52:05;;;;;;;5.05;1.92;;;;;;;;;;5080625;28;20029;-87
2023/12/27 11:54:31;;;;;;;2.72;1.63;;;;;;;;;;5079521;28;20047;-85
2023/12/27 11:56:56;;;;;;;1.63;1.50;;;;;;;;;;5082033;28;20037;-86
2023/12/27 11:59:22;;;;;;;2.45;1.70;;;;;;;;;;5094048;28;20035;-86
2023/12/27 12:01:48;;;;;;;3.28;1.67;;;;;;;;;;5083446;28;20210;-87
2023/12/27 12:04:45;;;;;;;1.30;1.05;;;;;;;;;;5084861;28;20028;-86
2023/12/27 12:07:14;;;;;;;2.42;1.40;;;;;;;;;;5086328;28;20012;-87
2023/12/27 12:09:44;;;;;;;1.77;1.48;;;;;;;;;;5072209;28;20024;-87
2023/12/27 12:12:17;;;;;;;2.40;1.48;;;;;;;;;;5083748;28;20016;-87
2023/12/27 12:14:43;;;;;;;2.10;1.55;;;;;;;;;;5063254;28;20031;-87
2023/12/27 12:17:08;;;;;;;2.42;1.55;;;;;;;;;;5061897;28;20020;-87
2023/12/27 12:19:35;;;;;;;2.13;1.75;;;;;;;;;;5088094;28;20493;-86
2023/12/27 12:22:01;;;;;;;2.00;1.80;;;;;;;;;;5089703;28;20028;-85
2023/12/27 12:24:27;;;;;;;3.70;2.25;;;;;;;;;;5092942;28;20077;-85
2023/12/27 12:26:54;;;;;;;2.30;1.67;;;;;;;;;;5080716;28;20032;-86
2023/12/27 12:29:20;;;;;;;2.80;1.90;;;;;;;;;;5058683;28;20024;-85
2023/12/27 12:31:47;;;;;;;2.92;1.60;;;;;;;;;;5084574;28;20604;-86
2023/12/27 12:34:13;;;;;;;3.35;1.73;;;;;;;;;;5087649;28;20033;-86
2023/12/27 12:36:39;;;;;;;1.52;1.30;;;;;;;;;;5081889;28;20024;-86
2023/12/27 12:39:04;;;;;;;2.00;1.58;;;;;;;;;;5085628;28;20470;-86
2023/12/27 12:41:29;;;;;;;4.18;1.83;;;;;;;;;;5067449;28;20027;-86
2023/12/27 12:43:56;;;;;;;2.50;1.40;;;;;;;;;;5082922;28;20355;-87
2023/12/27 12:46:22;;;;;;;2.13;1.42;;;;;;;;;;5076706;28;20020;-86
2023/12/27 12:48:49;;;;;;;2.05;1.60;;;;;;;;;;5083590;28;20034;-86
2023/12/27 12:51:17;;;;;;;3.47;1.48;;;;;;;;;;5081924;28;20302;-88
2023/12/27 12:53:46;;;;;;;2.55;1.50;;;;;;;;;;5087667;28;20042;-87
2023/12/27 12:56:12;;;;;;;2.40;1.55;;;;;;;;;;5072078;28;20035;-87
2023/12/27 12:58:41;;;;;;;1.95;1.38;;;;;;;;;;5084955;28;20085;-86
2023/12/27 13:01:09;;;;;;;1.42;1.33;;;;;;;;;;5086709;28;20073;-86
2023/12/27 13:03:37;;;;;;;1.90;1.38;;;;;;;;;;5086717;28;20495;-87
2023/12/27 13:06:06;;;;;;;2.50;1.48;;;;;;;;;;5087070;28;20047;-87
2023/12/27 13:08:32;;;;;;;3.38;1.48;;;;;;;;;;5062432;28;20043;-87
2023/12/27 13:10:57;;;;;;;2.75;1.30;;;;;;;;;;5084731;28;20031;-87
2023/12/27 13:13:23;;;;;;;4.10;1.38;;;;;;;;;;5083758;28;20028;-88
2023/12/27 13:15:48;;;;;;;2.05;1.13;;;;;;;;;;5068999;28;20042;-87
2023/12/27 13:18:13;;;;;;;2.03;1.40;;;;;;;;;;5088545;28;20012;-88
2023/12/27 13:20:39;;;;;;;2.70;1.83;;;;;;;;;;5084898;28;20055;-86
2023/12/27 13:23:04;;;;;;;1.55;1.15;;;;;;;;;;5088268;28;20063;-88
2023/12/27 13:25:29;;;;;;;5.65;1.40;;;;;;;;;;5080622;28;20024;-87
2023/12/27 13:27:55;;;;;;;1.77;1.50;;;;;;;;;;5083000;28;20070;-88
2023/12/27 13:30:20;;;;;;;2.38;1.42;;;;;;;;;;5076768;28;20436;-87
2023/12/27 13:32:45;;;;;;;1.42;1.20;;;;;;;;;;5085531;28;20662;-87
2023/12/27 13:35:11;;;;;;;3.08;1.35;;;;;;;;;;5082815;28;20462;-88
2023/12/27 13:37:36;;;;;;;1.80;1.17;;;;;;;;;;5091393;28;20032;-86
2023/12/27 13:40:03;;;;;;;5.20;1.40;;;;;;;;;;5075514;28;20066;-88
2023/12/27 13:42:29;;;;;;;2.08;1.27;;;;;;;;;;5067855;28;20032;-85
2023/12/27 13:44:55;;;;;;;2.53;1.40;;;;;;;;;;5082225;28;20017;-89
2023/12/27 13:47:20;;;;;;;2.38;1.50;;;;;;;;;;5082122;28;20031;-88
2023/12/27 13:49:45;;;;;;;4.85;1.73;;;;;;;;;;5080590;28;20088;-88
2023/12/27 13:52:11;;;;;;;4.47;1.70;;;;;;;;;;5070667;28;20390;-87
2023/12/27 13:54:37;;;;;;;3.05;1.92;;;;;;;;;;5064264;28;20093;-87
2023/12/27 13:57:03;;;;;;;1.95;1.42;;;;;;;;;;5066992;28;20496;-88
2023/12/27 13:59:29;;;;;;;2.33;1.58;;;;;;;;;;5066976;28;20024;-86
2023/12/27 14:01:56;;;;;;;1.40;1.30;;;;;;;;;;5072608;28;20021;-86
2023/12/27 14:04:22;;;;;;;1.98;1.55;;;;;;;;;;5077413;28;20032;-87
2023/12/27 14:06:48;;;;;;;4.63;1.85;;;;;;;;;;5073953;28;20035;-86
2023/12/27 14:09:14;;;;;;;2.75;1.92;;;;;;;;;;5081173;28;20017;-89
2023/12/27 14:11:42;;;;;;;2.55;1.73;;;;;;;;;;5082670;28;20032;-84
2023/12/27 14:14:07;;;;;;;3.30;1.77;;;;;;;;;;5083415;28;20032;-88
2023/12/27 14:16:33;;;;;;;4.00;1.85;;;;;;;;;;5078969;28;20025;-86
2023/12/27 14:18:58;;;;;;;3.40;1.80;;;;;;;;;;5088433;28;20063;-85
2023/12/27 14:21:24;;;;;;;2.60;1.48;;;;;;;;;;5080556;28;20031;-86
2023/12/27 14:23:50;;;;;;;5.63;2.17;;;;;;;;;;5092356;28;20037;-87
2023/12/27 14:26:16;;;;;;;3.97;1.77;;;;;;;;;;5093447;28;20016;-87
2023/12/27 14:28:42;;;;;;;3.60;2.10;;;;;;;;;;5070647;28;20024;-84
2023/12/27 14:31:07;;;;;;;4.70;2.03;;;;;;;;;;5069725;28;20103;-86
2023/12/27 14:33:33;;;;;;;3.20;1.60;;;;;;;;;;5105221;28;20080;-85
2023/12/27 14:35:58;;;;;;;2.70;1.70;;;;;;;;;;5096226;28;20031;-87